Time;durP1;ratioP1;P1;durP2;ratioP2;P2;SDS_P1;SDS_P2;PMS_P1;PMS_P2;Temp;Humidity;BMP_temperature;BMP_pressure;BME280_temperature;BME280_humidity;BME280_pressure;Samples;Min_cycle;Max_cycle;Signal;HPM_P1;HPM_P2
2021/04/12 00:00:19;;;;;;;6.22;2.60;;;;;;;6.63;70.75;98299.06;5006744;28;20037;-63
2021/04/12 00:02:55;;;;;;;4.00;2.13;;;;;;;6.72;71.34;98305.78;5007518;28;20053;-63
2021/04/12 00:05:42;;;;;;;2.97;2.67;;;;;;;6.69;71.01;98313.47;5009148;28;20057;-63
2021/04/12 00:08:15;;;;;;;3.17;2.30;;;;;;;6.58;71.79;98313.53;5008456;28;20138;-62
2021/04/12 00:10:57;;;;;;;3.23;2.70;;;;;;;6.52;72.27;98308.53;5055185;28;20397;-63
2021/04/12 00:13:25;;;;;;;3.90;2.50;;;;;;;6.58;72.30;98317.78;5054124;28;20033;-63
2021/04/12 00:16:00;;;;;;;4.60;2.37;;;;;;;6.66;71.90;98310.97;5053639;28;20094;-63
2021/04/12 00:18:29;;;;;;;;;;;;;;;6.65;71.70;98305.00;5055253;28;20036;-63
2021/04/12 00:20:57;;;;;;;4.50;2.67;;;;;;;6.67;71.40;98304.97;5056101;28;19921;-63
2021/04/12 00:24:18;;;;;;;4.07;2.40;;;;;;;6.55;71.43;98303.38;5053925;28;20036;-63
2021/04/12 00:26:50;;;;;;;4.20;2.60;;;;;;;6.48;71.83;98306.00;4976968;28;20108;-63
2021/04/12 00:29:30;;;;;;;3.77;2.20;;;;;;;6.54;71.09;98309.34;4977647;28;20066;-62
2021/04/12 00:32:07;;;;;;;2.80;2.00;;;;;;;6.47;70.95;98300.06;4977619;28;20058;-63
2021/04/12 00:35:11;;;;;;;2.87;1.97;;;;;;;6.49;71.43;98300.91;4974587;28;20054;-63
2021/04/12 00:37:49;;;;;;;3.53;1.80;;;;;;;6.46;70.96;98292.44;4976079;28;20046;-63
2021/04/12 00:40:33;;;;;;;3.10;2.40;;;;;;;6.33;71.28;98292.53;4977050;28;20149;-64
2021/04/12 00:43:15;;;;;;;5.03;2.60;;;;;;;6.23;71.57;98290.94;4978004;28;20392;-63
2021/04/12 00:46:11;;;;;;;3.23;2.10;;;;;;;6.13;72.24;98294.38;4975805;28;20077;-63
2021/04/12 00:49:01;;;;;;;2.03;1.90;;;;;;;6.04;72.22;98288.50;4976916;28;20324;-63
2021/04/12 00:51:51;;;;;;;2.70;2.07;;;;;;;6.00;72.68;98281.75;4976434;28;20041;-63
2021/04/12 00:54:37;;;;;;;2.23;2.03;;;;;;;5.98;73.53;98276.69;4978477;28;20093;-63
2021/04/12 00:57:15;;;;;;;5.60;2.47;;;;;;;6.01;72.48;98278.34;4976466;28;20046;-62
2021/04/12 01:00:07;;;;;;;2.20;1.97;;;;;;;6.04;72.74;98284.25;4977675;28;20039;-63
2021/04/12 01:03:00;;;;;;;2.50;2.27;;;;;;;5.97;72.29;98291.09;4985505;28;20042;-63
2021/04/12 01:05:58;;;;;;;2.77;2.00;;;;;;;6.01;72.95;98283.44;5033894;28;20045;-63
2021/04/12 01:08:45;;;;;;;2.23;1.63;;;;;;;6.05;73.27;98277.47;4949269;28;20332;-63
2021/04/12 01:11:47;;;;;;;2.57;2.00;;;;;;;6.03;73.40;98282.56;4947002;29;20027;-67
2021/04/12 01:14:19;;;;;;;2.70;2.50;;;;;;;5.93;73.14;98270.78;4948195;29;20040;-63
2021/04/12 01:17:26;;;;;;;3.37;1.90;;;;;;;5.91;73.12;98269.91;4952668;29;20129;-63
2021/04/12 01:20:12;;;;;;;2.10;1.90;;;;;;;5.82;72.68;98275.03;4913888;29;20294;-64
2021/04/12 01:22:56;;;;;;;4.43;2.30;;;;;;;5.73;74.02;98267.47;4902370;29;20325;-63
2021/04/12 01:26:07;;;;;;;2.77;2.20;;;;;;;5.64;73.97;98273.47;4917692;29;20040;-63
2021/04/12 01:28:41;;;;;;;2.13;1.67;;;;;;;5.53;74.02;98288.75;4887631;29;20048;-63
2021/04/12 01:31:19;;;;;;;3.30;1.75;;;;;;;5.45;74.95;98280.31;4884526;29;20079;-63
2021/04/12 01:34:03;;;;;;;2.90;2.20;;;;;;;5.55;75.29;98293.00;4889480;29;20522;-63
2021/04/12 01:36:48;;;;;;;2.67;2.30;;;;;;;5.56;75.39;98308.22;4883511;29;20040;-63
2021/04/12 01:39:42;;;;;;;2.00;1.90;;;;;;;5.61;75.83;98309.06;4885483;29;20103;-63
2021/04/12 01:42:31;;;;;;;3.30;1.80;;;;;;;5.60;74.86;98302.28;4883415;29;20299;-63
2021/04/12 01:45:05;;;;;;;2.20;2.00;;;;;;;5.62;75.01;98303.13;4896527;29;20048;-63
2021/04/12 01:48:06;;;;;;;4.00;1.87;;;;;;;5.57;75.18;98297.22;4904783;29;20042;-63
2021/04/12 01:50:35;;;;;;;2.90;1.80;;;;;;;5.82;74.54;98293.69;4903929;29;20140;-63
2021/04/12 01:53:22;;;;;;;1.87;1.70;;;;;;;5.87;74.07;98292.00;4902947;29;20052;-63
2021/04/12 01:55:56;;;;;;;3.73;1.83;;;;;;;5.90;73.98;98298.75;4912780;29;20154;-63
2021/04/12 01:59:05;;;;;;;3.57;1.80;;;;;;;5.93;73.43;98293.66;4941807;29;20174;-63
2021/04/12 02:01:43;;;;;;;1.97;1.70;;;;;;;5.91;72.80;98293.66;4917911;29;20069;-63
2021/04/12 02:04:37;;;;;;;2.63;1.50;;;;;;;6.01;73.01;98297.00;4964357;28;20058;-63
2021/04/12 02:07:32;;;;;;;1.60;1.50;;;;;;;6.08;72.49;98301.19;5051914;28;20033;-63
2021/04/12 02:10:19;;;;;;;3.50;1.77;;;;;;;6.02;72.26;98303.78;5054300;28;20051;-63
2021/04/12 02:13:15;;;;;;;3.53;1.67;;;;;;;5.98;72.86;98297.84;5052710;28;20044;-63
2021/04/12 02:15:56;;;;;;;4.55;1.50;;;;;;;6.07;72.71;98291.88;5051950;28;20036;-63
2021/04/12 02:18:44;;;;;;;2.40;2.13;;;;;;;6.10;72.54;98288.47;5053300;28;20028;-63
2021/04/12 02:21:27;;;;;;;1.83;1.50;;;;;;;6.08;72.25;98295.25;5053248;28;20033;-63
2021/04/12 02:24:05;;;;;;;3.30;1.73;;;;;;;6.07;72.76;98286.78;5052190;28;20090;-63
2021/04/12 02:26:40;;;;;;;1.93;1.53;;;;;;;6.06;72.50;98287.66;5053820;28;20178;-63
2021/04/12 02:29:23;;;;;;;5.88;1.70;;;;;;;6.21;71.99;98279.91;5053610;28;20294;-63
2021/04/12 02:32:24;;;;;;;3.40;1.50;;;;;;;6.08;72.06;98285.94;5053385;28;20306;-63
2021/04/12 02:35:18;;;;;;;4.37;1.50;;;;;;;6.04;72.59;98274.06;5053361;28;20025;-63
2021/04/12 02:38:07;;;;;;;1.50;1.40;;;;;;;6.08;72.16;98275.75;5056134;28;20021;-64
2021/04/12 02:40:50;;;;;;;3.20;1.43;;;;;;;6.01;72.09;98281.75;5057620;28;20029;-63
2021/04/12 02:43:37;;;;;;;2.40;1.43;;;;;;;5.91;72.47;98285.19;5046385;28;20033;-64
2021/04/12 02:46:27;;;;;;;3.33;1.40;;;;;;;5.82;72.75;98280.13;5056688;28;20021;-63
2021/04/12 02:49:29;;;;;;;3.17;1.60;;;;;;;5.70;73.00;98277.66;5056512;28;20043;-63
2021/04/12 02:52:25;;;;;;;1.87;1.40;;;;;;;5.61;73.50;98270.06;5056218;28;20036;-63
2021/04/12 02:55:27;;;;;;;1.65;1.42;;;;;;;5.53;73.89;98276.03;5053793;28;20032;-63
2021/04/12 02:58:15;;;;;;;1.60;1.43;;;;;;;5.44;74.38;98285.41;5057014;28;20056;-63
2021/04/12 03:00:58;;;;;;;1.63;1.53;;;;;;;5.38;74.03;98288.84;5055242;28;20092;-63
2021/04/12 03:04:01;;;;;;;1.73;1.60;;;;;;;5.32;74.55;98293.06;5054542;28;20065;-63
2021/04/12 03:06:38;;;;;;;2.60;1.70;;;;;;;5.23;75.10;98296.50;5056945;28;20378;-63
2021/04/12 03:09:31;;;;;;;2.23;1.93;;;;;;;5.21;74.98;98294.81;5056440;28;20031;-63
2021/04/12 03:12:24;;;;;;;2.60;2.27;;;;;;;5.20;75.48;98285.50;5056065;28;20040;-63
2021/04/12 03:15:07;;;;;;;3.57;2.57;;;;;;;5.13;75.21;98289.78;5054602;28;20036;-63
2021/04/12 03:18:10;;;;;;;2.23;1.83;;;;;;;5.12;75.26;98298.22;5056855;28;20024;-63
2021/04/12 03:21:13;;;;;;;3.17;2.10;;;;;;;5.23;76.01;98295.66;5053599;28;20065;-63
2021/04/12 03:23:51;;;;;;;3.60;2.27;;;;;;;5.27;74.92;98307.50;5056283;28;20078;-63
2021/04/12 03:26:29;;;;;;;1.60;1.50;;;;;;;5.23;75.07;98301.56;5055512;28;20044;-63
2021/04/12 03:29:21;;;;;;;2.23;1.63;;;;;;;5.11;75.35;98311.78;5054762;28;20033;-63
2021/04/12 03:32:08;;;;;;;2.73;2.07;;;;;;;5.09;75.60;98320.28;5055035;28;20047;-63
2021/04/12 03:34:48;;;;;;;2.97;1.57;;;;;;;5.01;75.73;98328.72;5056185;28;20036;-63
2021/04/12 03:37:16;;;;;;;2.77;1.63;;;;;;;5.00;75.37;98333.84;5055232;28;20021;-63
2021/04/12 03:40:01;;;;;;;1.97;1.87;;;;;;;4.91;75.58;98328.75;5054451;28;20436;-63
2021/04/12 03:42:45;;;;;;;3.53;2.03;;;;;;;4.86;76.21;98335.53;5056068;28;20029;-63
2021/04/12 03:45:25;;;;;;;4.10;1.90;;;;;;;4.80;76.58;98341.47;5054788;28;20036;-63
2021/04/12 03:48:11;;;;;;;2.57;1.50;;;;;;;4.83;76.74;98346.56;5053361;28;20146;-63
2021/04/12 03:50:48;;;;;;;1.60;1.40;;;;;;;5.05;76.38;98339.72;5055555;28;20043;-63
2021/04/12 03:53:44;;;;;;;3.40;1.40;;;;;;;5.18;75.23;98338.03;5053074;28;20021;-63
2021/04/12 03:56:09;;;;;;;;;;;;;;;5.06;75.15;98331.25;5055943;28;20506;-63
2021/04/12 03:58:53;;;;;;;2.53;1.70;;;;;;;5.01;75.84;98326.19;5053242;28;20003;-63
2021/04/12 04:01:43;;;;;;;3.60;1.77;;;;;;;5.07;75.41;98333.81;5056286;28;20386;-63
2021/04/12 04:04:46;;;;;;;2.23;2.03;;;;;;;5.05;75.64;98337.19;5053590;28;20398;-63
2021/04/12 04:07:47;;;;;;;2.47;1.90;;;;;;;5.04;75.11;98344.00;5056530;28;20123;-63
2021/04/12 04:10:36;;;;;;;5.37;1.77;;;;;;;4.98;76.06;98344.00;5052611;28;20029;-63
2021/04/12 04:13:30;;;;;;;1.33;1.03;;;;;;;5.05;75.41;98347.34;5055248;28;20275;-63
2021/04/12 04:16:23;;;;;;;2.70;1.30;;;;;;;5.10;74.47;98345.66;5061734;28;20037;-63
2021/04/12 04:19:12;;;;;;;2.60;1.20;;;;;;;5.01;74.97;98346.50;5054752;28;20091;-63
2021/04/12 04:22:14;;;;;;;1.53;0.90;;;;;;;4.97;75.10;98346.50;5055508;28;20024;-63
2021/04/12 04:24:49;;;;;;;1.67;1.30;;;;;;;4.88;75.64;98344.84;5056009;28;20040;-63
2021/04/12 04:27:43;;;;;;;2.00;1.17;;;;;;;4.88;76.17;98351.63;5052195;28;20051;-63
2021/04/12 04:30:14;;;;;;;1.47;1.30;;;;;;;4.87;76.41;98350.78;4997084;28;20034;-63
2021/04/12 04:32:50;;;;;;;7.40;1.70;;;;;;;5.04;75.37;98361.78;4995760;28;20034;-63
2021/04/12 04:35:41;;;;;;;3.70;1.40;;;;;;;5.11;75.35;98372.75;4994026;28;20042;-63
2021/04/12 04:38:29;;;;;;;2.40;1.40;;;;;;;5.17;74.71;98377.00;4995947;28;20038;-63
2021/04/12 04:41:11;;;;;;;3.03;1.23;;;;;;;5.31;74.52;98385.41;4999332;28;20041;-63
2021/04/12 04:44:18;;;;;;;1.93;1.50;;;;;;;5.39;74.74;98389.63;4996214;28;20026;-63
2021/04/12 04:46:50;;;;;;;1.70;1.40;;;;;;;5.46;73.97;98386.25;4938688;29;20039;-63
2021/04/12 04:49:50;;;;;;;2.10;1.30;;;;;;;5.56;74.04;98397.22;4935846;29;20067;-63
2021/04/12 04:52:33;;;;;;;5.33;1.77;;;;;;;5.62;73.85;98411.63;4938295;29;20040;-64
2021/04/12 04:55:35;;;;;;;4.97;1.80;;;;;;;5.69;74.22;98428.53;4938268;29;20170;-63
2021/04/12 04:58:45;;;;;;;4.60;2.17;;;;;;;5.75;74.07;98441.25;4936435;29;20079;-63
2021/04/12 05:01:22;;;;;;;4.40;1.60;;;;;;;5.82;74.33;98460.72;4936822;29;20461;-63
2021/04/12 05:03:59;;;;;;;2.53;1.37;;;;;;;5.95;73.87;98458.16;4936372;29;20055;-63
2021/04/12 05:07:02;;;;;;;3.03;1.50;;;;;;;6.08;73.63;98442.84;4949131;28;20038;-63
2021/04/12 05:09:49;;;;;;;6.63;1.90;;;;;;;6.17;73.19;98456.38;4976029;28;20022;-63
2021/04/12 05:12:53;;;;;;;3.27;2.10;;;;;;;6.25;73.07;98454.66;4991285;28;20034;-63
2021/04/12 05:15:36;;;;;;;1.73;1.60;;;;;;;6.28;72.24;98462.25;4991156;28;20041;-63
2021/04/12 05:18:26;;;;;;;4.13;1.60;;;;;;;6.34;71.67;98453.75;4990339;28;20042;-64
2021/04/12 05:21:08;;;;;;;1.83;1.40;;;;;;;6.31;72.01;98447.00;4991886;28;20117;-64
2021/04/12 05:24:04;;;;;;;4.43;1.53;;;;;;;6.35;71.90;98442.72;5006865;28;20131;-63
2021/04/12 05:26:38;;;;;;;;;;;;;;;6.32;72.12;98447.84;5052218;28;20075;-63
2021/04/12 05:29:13;;;;;;;3.83;1.37;;;;;;;6.34;71.75;98439.34;5054470;28;19917;-63
2021/04/12 05:31:57;;;;;;;3.23;1.40;;;;;;;6.41;71.60;98438.44;5053719;28;20344;-63
2021/04/12 05:34:46;;;;;;;1.53;1.40;;;;;;;6.46;71.33;98433.31;5053180;28;20044;-63
2021/04/12 05:37:33;;;;;;;2.27;1.10;;;;;;;6.58;70.94;98440.03;5050791;28;20040;-63
2021/04/12 05:40:26;;;;;;;5.73;1.77;;;;;;;6.67;70.93;98443.38;5053861;28;20374;-64
2021/04/12 05:43:07;;;;;;;2.70;2.23;;;;;;;6.78;70.90;98456.06;5053478;28;20032;-63
2021/04/12 05:45:38;;;;;;;2.97;1.90;;;;;;;6.85;70.60;98460.25;5053167;28;20061;-65
2021/04/12 05:48:51;;;;;;;5.27;1.70;;;;;;;6.93;70.39;98475.47;5053569;28;20806;-64
2021/04/12 05:51:21;;;;;;;3.70;1.90;;;;;;;6.98;70.36;98472.03;5053085;28;20025;-64
2021/04/12 05:54:05;;;;;;;2.50;2.13;;;;;;;7.05;70.37;98457.53;5052142;28;20028;-65
2021/04/12 05:56:52;;;;;;;2.03;1.80;;;;;;;7.14;70.09;98460.00;5051225;28;20404;-65
2021/04/12 05:59:32;;;;;;;2.80;2.50;;;;;;;7.22;69.89;98464.19;5053041;28;20299;-65
2021/04/12 06:02:40;;;;;;;2.40;2.20;;;;;;;7.51;69.73;98458.00;5049126;28;20087;-64
2021/04/12 06:05:33;;;;;;;2.90;2.57;;;;;;;7.78;69.12;98455.16;4975635;28;20456;-64
2021/04/12 06:08:30;;;;;;;2.50;2.03;;;;;;;8.05;68.07;98446.34;4977128;28;20038;-64
2021/04/12 06:11:23;;;;;;;4.93;2.03;;;;;;;8.36;67.67;98449.41;4980895;28;20146;-65
2021/04/12 06:14:11;;;;;;;7.50;2.50;;;;;;;8.74;66.87;98454.00;4975551;28;20069;-65
2021/04/12 06:17:08;;;;;;;1.93;1.83;;;;;;;9.01;65.46;98448.44;4975892;28;20035;-64
2021/04/12 06:20:08;;;;;;;3.87;2.47;;;;;;;9.32;65.37;98447.09;4977053;28;20054;-65
2021/04/12 06:22:47;;;;;;;2.00;1.73;;;;;;;9.55;64.43;98444.09;4947093;28;20462;-63
2021/04/12 06:25:37;;;;;;;2.40;2.20;;;;;;;9.83;64.34;98458.09;4976536;28;20043;-64
2021/04/12 06:28:25;;;;;;;2.10;1.60;;;;;;;10.17;62.93;98449.78;4975386;28;20039;-64
2021/04/12 06:31:22;;;;;;;1.90;1.40;;;;;;;10.50;61.21;98447.38;4979447;28;20047;-65
2021/04/12 06:34:06;;;;;;;2.17;1.97;;;;;;;10.87;60.99;98457.63;4979037;28;20282;-62
2021/04/12 06:36:36;;;;;;;2.67;1.43;;;;;;;11.17;59.65;98456.06;4981910;28;20405;-63
2021/04/12 06:39:30;;;;;;;1.47;1.20;;;;;;;11.42;56.86;98457.16;4980928;28;20129;-63
2021/04/12 06:42:05;;;;;;;2.00;1.10;;;;;;;11.72;55.54;98464.97;5012812;28;20045;-64
2021/04/12 06:44:40;;;;;;;1.90;1.20;;;;;;;11.93;55.56;98464.41;5061573;28;20040;-64
2021/04/12 06:47:09;;;;;;;1.60;1.27;;;;;;;12.20;54.40;98462.81;5050941;28;20077;-64
2021/04/12 06:50:05;;;;;;;17.97;9.97;;;;;;;12.41;53.53;98469.06;5055221;28;20071;-63
2021/04/12 06:52:36;;;;;;;8.32;4.03;;;;;;;12.57;53.21;98457.44;5045481;28;20037;-64
2021/04/12 06:55:20;;;;;;;2.28;1.65;;;;;;;13.02;52.52;98468.09;5055193;28;20079;-63
2021/04/12 06:58:07;;;;;;;1.77;1.67;;;;;;;13.29;51.77;98456.91;5054979;28;20039;-63
2021/04/12 07:00:47;;;;;;;3.60;3.05;;;;;;;13.53;50.87;98463.84;5055778;28;20025;-63
2021/04/12 07:03:50;;;;;;;3.75;3.03;;;;;;;13.82;50.37;98462.00;5053680;28;20035;-63
2021/04/12 07:06:15;;;;;;;8.85;4.80;;;;;;;13.97;50.38;98467.47;5054321;28;20028;-63
2021/04/12 07:09:17;;;;;;;3.88;2.40;;;;;;;14.34;50.14;98469.56;5056156;28;20052;-63
2021/04/12 07:11:48;;;;;;;2.15;1.98;;;;;;;14.66;48.96;98467.56;5054546;28;20079;-64
2021/04/12 07:14:42;;;;;;;4.57;1.83;;;;;;;14.76;49.26;98466.31;5058042;28;20051;-63
2021/04/12 07:17:29;;;;;;;10.35;4.55;;;;;;;14.81;49.15;98465.22;5055968;28;20255;-63
2021/04/12 07:20:25;;;;;;;15.82;6.90;;;;;;;14.73;50.12;98466.41;5045146;28;20070;-63
2021/04/12 07:22:50;;;;;;;;;;;;;;;14.96;50.17;98466.38;5055326;28;20120;-64
2021/04/12 07:25:46;;;;;;;8.30;4.47;;;;;;;14.81;50.33;98467.00;5057257;28;19999;-64
2021/04/12 07:28:19;;;;;;;;;;;;;;;14.86;50.31;98472.78;5056201;28;20029;-63
2021/04/12 07:31:07;;;;;;;15.73;7.10;;;;;;;14.63;50.69;98482.28;5055134;28;19913;-64
2021/04/12 07:33:56;;;;;;;11.93;5.10;;;;;;;14.67;50.33;98495.91;5055269;28;20064;-64
2021/04/12 07:36:35;;;;;;;11.82;5.88;;;;;;;14.84;50.15;98496.09;5056159;28;20301;-64
2021/04/12 07:39:15;;;;;;;9.52;6.13;;;;;;;14.61;50.97;98489.22;5057204;28;20029;-64
2021/04/12 07:41:50;;;;;;;5.00;3.47;;;;;;;14.74;50.22;98484.44;5055409;28;20029;-64
2021/04/12 07:44:53;;;;;;;3.35;2.97;;;;;;;14.78;50.27;98491.16;5055935;28;20187;-64
2021/04/12 07:47:49;;;;;;;7.75;3.60;;;;;;;15.16;49.33;98491.41;5055821;28;20039;-64
2021/04/12 07:50:32;;;;;;;2.67;2.47;;;;;;;15.43;49.07;98492.91;5057153;28;20033;-64
2021/04/12 07:53:35;;;;;;;2.63;2.42;;;;;;;15.62;48.93;98495.56;5054014;28;20039;-64
2021/04/12 07:56:06;;;;;;;2.70;2.40;;;;;;;15.87;48.55;98502.25;5056385;28;20094;-64
2021/04/12 07:58:50;;;;;;;2.92;2.63;;;;;;;16.11;47.49;98502.13;5055851;28;20033;-64
2021/04/12 08:01:53;;;;;;;3.72;2.40;;;;;;;16.33;46.98;98506.28;5054043;28;20028;-64
2021/04/12 08:04:46;;;;;;;5.85;2.83;;;;;;;16.34;47.38;98505.38;5053817;28;20057;-64
2021/04/12 08:07:39;;;;;;;4.35;2.60;;;;;;;16.27;47.01;98510.88;5055207;28;20024;-64
2021/04/12 08:10:29;;;;;;;1.80;1.70;;;;;;;16.41;46.38;98519.72;5055858;28;20075;-64
2021/04/12 08:13:41;;;;;;;8.48;4.18;;;;;;;16.52;45.01;98518.41;5054524;28;20049;-64
2021/04/12 08:16:57;;;;;;;3.10;2.40;;;;;;;16.62;44.92;98517.97;5056304;28;20049;-64
2021/04/12 08:19:28;;;;;;;2.22;2.10;;;;;;;16.93;44.45;98512.19;5053148;28;20401;-64
2021/04/12 08:22:08;;;;;;;2.58;2.25;;;;;;;17.12;44.69;98515.63;5056150;28;20370;-63
2021/04/12 08:25:21;;;;;;;2.90;2.70;;;;;;;17.28;43.73;98518.31;5053750;28;20026;-63
2021/04/12 08:28:21;;;;;;;4.28;2.70;;;;;;;17.58;42.96;98526.41;5036596;28;20037;-64
2021/04/12 08:31:24;;;;;;;4.32;2.83;;;;;;;17.66;43.98;98530.28;5031666;28;20037;-63
2021/04/12 08:34:27;;;;;;;3.50;3.03;;;;;;;17.49;43.18;98524.22;5032328;28;20137;-63
2021/04/12 08:37:27;;;;;;;3.85;3.33;;;;;;;17.77;42.49;98520.25;5031156;28;20038;-63
2021/04/12 08:40:15;;;;;;;2.83;2.60;;;;;;;17.59;43.63;98523.75;5031665;28;20405;-63
2021/04/12 08:42:52;;;;;;;2.72;2.53;;;;;;;17.82;42.84;98525.22;5032571;28;20045;-63
2021/04/12 08:45:51;;;;;;;3.95;2.53;;;;;;;18.04;42.19;98520.59;5031364;28;20037;-62
2021/04/12 08:48:22;;;;;;;4.20;2.80;;;;;;;17.43;43.74;98530.56;5029857;28;20481;-62
2021/04/12 08:51:16;;;;;;;9.18;3.55;;;;;;;17.47;42.87;98539.88;5034325;28;20037;-62
2021/04/12 08:54:00;;;;;;;4.82;3.65;;;;;;;17.53;43.15;98534.38;5033528;28;20317;-64
2021/04/12 08:57:03;;;;;;;4.22;2.78;;;;;;;17.33;43.49;98527.56;5030621;28;20053;-63
2021/04/12 08:59:51;;;;;;;5.15;2.67;;;;;;;17.47;43.16;98524.31;5031672;28;20037;-63
2021/04/12 09:02:53;;;;;;;4.72;2.90;;;;;;;17.65;43.00;98533.78;5046093;28;20068;-63
2021/04/12 09:05:40;;;;;;;3.13;2.92;;;;;;;17.63;43.39;98529.63;5052250;28;20087;-63
2021/04/12 09:08:31;;;;;;;4.03;2.83;;;;;;;17.63;43.92;98529.63;5054616;28;20103;-63
2021/04/12 09:11:33;;;;;;;6.35;3.85;;;;;;;17.56;44.70;98531.66;5051636;28;20051;-63
2021/04/12 09:14:26;;;;;;;5.68;3.47;;;;;;;17.61;44.22;98532.28;5052987;28;20024;-64
2021/04/12 09:17:22;;;;;;;4.10;3.72;;;;;;;17.64;44.62;98528.72;5053201;28;20060;-64
2021/04/12 09:20:06;;;;;;;5.88;3.88;;;;;;;17.64;44.32;98526.13;5048406;28;20079;-64
2021/04/12 09:23:06;;;;;;;6.63;3.92;;;;;;;17.68;45.25;98523.28;5049872;28;20060;-64
2021/04/12 09:26:01;;;;;;;6.90;3.28;;;;;;;17.74;44.71;98527.31;5036515;28;20071;-64
2021/04/12 09:28:51;;;;;;;4.22;3.85;;;;;;;17.62;44.39;98518.41;4956230;28;20047;-64
2021/04/12 09:31:41;;;;;;;4.32;3.92;;;;;;;17.57;44.73;98516.91;4958229;28;20384;-63
2021/04/12 09:34:48;;;;;;;3.55;3.22;;;;;;;17.88;44.16;98519.69;4956861;28;20389;-63
2021/04/12 09:37:51;;;;;;;4.18;3.78;;;;;;;17.96;44.62;98527.09;4898106;29;20436;-63
2021/04/12 09:40:25;;;;;;;9.68;5.15;;;;;;;18.09;43.91;98525.56;4896918;29;20040;-64
2021/04/12 09:43:03;;;;;;;5.00;4.20;;;;;;;18.22;43.76;98526.63;4897720;29;20062;-64
2021/04/12 09:45:47;;;;;;;4.38;3.97;;;;;;;18.07;43.30;98528.25;4899792;29;20273;-64
2021/04/12 09:48:50;;;;;;;4.40;4.00;;;;;;;18.32;43.57;98533.03;4901393;29;20044;-64
2021/04/12 09:51:18;;;;;;;5.60;4.20;;;;;;;18.31;43.34;98520.09;4886070;29;20402;-64
2021/04/12 09:54:17;;;;;;;6.10;4.35;;;;;;;18.45;43.33;98520.25;4900566;29;20311;-64
2021/04/12 09:57:16;;;;;;;5.38;4.80;;;;;;;18.31;43.14;98515.75;4901502;29;20379;-63
2021/04/12 09:59:47;;;;;;;5.57;5.07;;;;;;;18.21;43.19;98519.72;4902081;29;20059;-64
2021/04/12 10:02:46;;;;;;;5.07;4.68;;;;;;;18.62;43.30;98507.22;4891968;29;20409;-64
2021/04/12 10:05:34;;;;;;;6.82;4.63;;;;;;;18.69;42.97;98503.38;4918087;28;20058;-65
2021/04/12 10:08:08;;;;;;;7.40;4.78;;;;;;;19.00;42.94;98508.59;4976332;28;20042;-64
2021/04/12 10:10:42;;;;;;;5.35;4.32;;;;;;;19.04;41.94;98507.50;4975263;28;20034;-64
2021/04/12 10:13:21;;;;;;;5.13;4.72;;;;;;;18.93;41.90;98507.22;4999683;28;20048;-64
2021/04/12 10:16:03;;;;;;;7.07;5.32;;;;;;;19.05;42.02;98510.94;5056141;28;20390;-64
2021/04/12 10:18:42;;;;;;;5.97;4.60;;;;;;;19.07;42.08;98501.28;5058597;28;20032;-63
2021/04/12 10:21:40;;;;;;;6.75;4.80;;;;;;;19.27;41.76;98513.16;5052573;28;20270;-63
2021/04/12 10:24:22;;;;;;;7.93;5.25;;;;;;;19.48;42.08;98504.19;5054445;28;20124;-63
2021/04/12 10:26:59;;;;;;;6.70;5.97;;;;;;;19.41;42.30;98508.03;5056436;28;20029;-63
2021/04/12 10:29:32;;;;;;;10.27;6.10;;;;;;;19.34;43.00;98493.72;5054587;28;20041;-64
2021/04/12 10:32:18;;;;;;;5.68;5.10;;;;;;;19.53;41.78;98489.16;5057615;28;20021;-63
2021/04/12 10:34:52;;;;;;;6.32;5.60;;;;;;;19.84;41.04;98502.06;5055132;28;20037;-64
2021/04/12 10:37:42;;;;;;;6.00;5.40;;;;;;;19.91;41.31;98503.38;5055734;28;20070;-64
2021/04/12 10:40:19;;;;;;;7.75;5.95;;;;;;;19.97;41.33;98497.84;5056574;28;20037;-64
2021/04/12 10:43:00;;;;;;;5.60;5.10;;;;;;;20.20;40.80;98490.44;5058413;28;20036;-64
2021/04/12 10:45:58;;;;;;;5.30;4.80;;;;;;;19.90;41.19;98493.09;5056087;28;20399;-64
2021/04/12 10:48:30;;;;;;;9.80;7.57;;;;;;;19.33;42.28;98497.22;5046267;28;20047;-64
2021/04/12 10:51:24;;;;;;;6.82;6.18;;;;;;;19.34;42.50;98496.31;5056768;28;20025;-64
2021/04/12 10:54:10;;;;;;;6.97;6.28;;;;;;;19.72;42.06;98499.34;5058676;28;20035;-64
2021/04/12 10:56:43;;;;;;;24.35;7.45;;;;;;;19.78;41.80;98504.19;5050424;28;20018;-65
2021/04/12 10:59:20;;;;;;;5.97;5.50;;;;;;;20.27;41.03;98497.78;5055417;28;20039;-64
2021/04/12 11:02:00;;;;;;;7.15;5.63;;;;;;;20.79;40.48;98492.81;5056414;28;20259;-65
2021/04/12 11:04:44;;;;;;;9.02;6.90;;;;;;;20.78;40.15;98492.94;5055755;28;20053;-64
2021/04/12 11:07:18;;;;;;;6.93;6.22;;;;;;;20.58;40.61;98499.34;5055966;28;20053;-64
2021/04/12 11:09:50;;;;;;;6.22;5.70;;;;;;;20.56;40.87;98497.78;5055192;28;20028;-65
2021/04/12 11:12:21;;;;;;;6.95;5.50;;;;;;;20.77;40.09;98496.47;5053545;28;20017;-65
2021/04/12 11:14:53;;;;;;;6.88;6.07;;;;;;;20.43;40.80;98505.50;5055875;28;20025;-64
2021/04/12 11:17:48;;;;;;;5.32;4.82;;;;;;;19.95;41.32;98506.63;5057702;28;20032;-64
2021/04/12 11:20:17;;;;;;;7.43;4.80;;;;;;;19.38;41.98;98505.63;5055738;28;20036;-65
2021/04/12 11:22:57;;;;;;;4.40;4.00;;;;;;;19.03;43.06;98508.41;5056301;28;20171;-65
2021/04/12 11:25:29;;;;;;;5.22;4.85;;;;;;;18.53;45.00;98518.09;5056113;28;20036;-65
2021/04/12 11:28:03;;;;;;;7.55;5.53;;;;;;;18.01;45.88;98520.75;5070607;28;20320;-64
2021/04/12 11:30:58;;;;;;;6.22;5.72;;;;;;;17.54;47.68;98528.28;5052912;28;20021;-64
2021/04/12 11:33:41;;;;;;;7.93;6.80;;;;;;;16.87;48.96;98533.22;5060660;28;20041;-64
2021/04/12 11:36:22;;;;;;;8.00;7.28;;;;;;;16.64;49.96;98533.41;5053783;28;20048;-63
2021/04/12 11:39:00;;;;;;;7.30;6.47;;;;;;;16.49;50.71;98531.47;5054947;28;20032;-64
2021/04/12 11:41:30;;;;;;;7.75;6.85;;;;;;;16.52;50.15;98536.50;5054508;28;20036;-64
2021/04/12 11:44:00;;;;;;;9.90;7.95;;;;;;;16.20;50.34;98538.78;5057252;28;20439;-64
2021/04/12 11:46:30;;;;;;;8.30;7.53;;;;;;;15.92;51.32;98535.66;5053358;28;20020;-63
2021/04/12 11:49:24;;;;;;;7.78;6.82;;;;;;;15.88;51.44;98555.66;5055269;28;20056;-63
2021/04/12 11:52:20;;;;;;;10.73;6.90;;;;;;;15.76;50.38;98556.16;5054127;28;20032;-63
2021/04/12 11:55:08;;;;;;;;;;;;;;;15.64;50.80;98559.25;5056520;28;20029;-63
2021/04/12 11:57:44;;;;;;;6.93;6.30;;;;;;;15.28;51.47;98568.41;5016103;28;19917;-63
2021/04/12 12:00:27;;;;;;;10.70;6.15;;;;;;;15.37;51.76;98563.72;5014977;28;20053;-63
2021/04/12 12:03:09;;;;;;;6.45;5.68;;;;;;;15.32;52.79;98564.81;4999326;28;20152;-63
2021/04/12 12:06:09;;;;;;;7.25;5.95;;;;;;;15.26;52.36;98578.81;4991693;28;20129;-63
2021/04/12 12:08:57;;;;;;;6.47;5.80;;;;;;;15.15;52.68;98574.97;4992014;28;20096;-63
2021/04/12 12:11:31;;;;;;;6.50;5.90;;;;;;;14.85;54.77;98576.97;4993383;28;20320;-64
2021/04/12 12:14:11;;;;;;;6.80;6.10;;;;;;;14.74;54.52;98587.66;4992454;28;20073;-62
2021/04/12 12:16:42;;;;;;;8.63;5.47;;;;;;;14.51;56.13;98596.22;4992058;28;20049;-63
2021/04/12 12:19:41;;;;;;;6.85;5.97;;;;;;;14.36;56.00;98601.91;4991705;28;20172;-63
2021/04/12 12:22:26;;;;;;;7.07;6.40;;;;;;;14.21;55.87;98609.31;4994306;28;20042;-63
2021/04/12 12:25:23;;;;;;;7.70;6.22;;;;;;;13.97;56.33;98618.69;4992635;28;20383;-63
2021/04/12 12:28:04;;;;;;;6.18;5.57;;;;;;;13.79;57.17;98614.16;4991396;28;20042;-62
2021/04/12 12:30:37;;;;;;;6.55;5.80;;;;;;;13.57;58.21;98620.00;4975575;28;20054;-63
2021/04/12 12:33:15;;;;;;;12.25;6.43;;;;;;;13.50;58.04;98617.63;4993446;28;20101;-63
2021/04/12 12:36:08;;;;;;;7.50;6.78;;;;;;;13.35;58.91;98620.69;5033898;28;20041;-62
2021/04/12 12:39:17;;;;;;;6.97;6.15;;;;;;;13.27;59.13;98636.38;5033844;28;20033;-62
2021/04/12 12:41:45;;;;;;;7.30;6.30;;;;;;;13.20;59.25;98640.00;4919489;29;20036;-63
2021/04/12 12:44:13;;;;;;;6.03;5.15;;;;;;;13.08;59.39;98623.16;4919916;29;20063;-63
2021/04/12 12:46:43;;;;;;;6.13;5.45;;;;;;;13.05;59.83;98635.28;4917740;29;20050;-63
2021/04/12 12:49:30;;;;;;;6.70;5.13;;;;;;;13.02;60.20;98620.78;4917168;29;20067;-62
2021/04/12 12:51:59;;;;;;;6.53;5.13;;;;;;;12.89;60.17;98634.03;4918810;29;20074;-61
2021/04/12 12:54:52;;;;;;;11.02;6.07;;;;;;;12.88;60.89;98628.03;4919391;29;20176;-62
2021/04/12 12:57:28;;;;;;;4.85;4.45;;;;;;;12.75;61.23;98640.41;4919147;29;20074;-62
2021/04/12 13:00:08;;;;;;;7.60;6.18;;;;;;;12.71;61.38;98651.66;4918095;29;20079;-62
2021/04/12 13:02:37;;;;;;;6.30;5.28;;;;;;;12.59;62.47;98646.00;4919274;29;20039;-62
2021/04/12 13:05:33;;;;;;;11.15;6.07;;;;;;;12.58;62.66;98646.88;4947119;29;20051;-62
2021/04/12 13:08:11;;;;;;;7.25;5.82;;;;;;;12.45;63.17;98674.66;4953213;29;20050;-62